Аэропорт: Шереметьево. Москва

ICAO: UUEE

METAR:
2022-08-15 23:30:00
UUEE 152330Z 07004MPS CAVOK 17/14 Q1022 R06R/CLRD62 NOSIG
METAR:
2022-08-15 19:49:00
TAF UUEE 151949Z 1521/1621 09003MPS 9999 FEW040 TX29/1613Z TN15/1602Z TEMPO 1611/1618 12008G14MPS